• Join FlightAware (Why Join?)
  • Login
  • US Flag 
12:01AM EST


 

Airport Tracker/Info


-or-


 

Live Flight TrackerFlight Track Log ✈ EJA396 ✈ 07-Oct-2013 ✈ KORF - KRDU

Flight Track Log - Related Links

Times and Time Zones

All times are in EDT time to prevent confusion due to time zone crossing. See the EJA396 flight status page for this flight to view local times or setup timezone preferences in your user account.

Time Position Orientation Groundspeed Altitude Reporting Facility
EDT Latitude Longitude Course Direction KTS MPH feet Rate Location/Type
06:01PM 36.8806 -76.2178 231° Southwest 160 184 1,200  Level Washington Center
06:02PM 36.8572 -76.2539 231° Southwest 212 244 4,800 4,120 Climbing Washington Center
06:03PM 36.8633 -76.3033 279° West 218 251 6,900 3,420 Climbing Washington Center
06:04PM 36.8689 -76.3889 275° West 233 268 10,500 3,846 Climbing Washington Center
06:05PM 36.8453 -76.4847 253° West 266 306 14,400 3,153 Climbing Washington Center
06:06PM 36.8194 -76.5883 253° West 289 333 16,700 2,331 Climbing Washington Center
06:07PM 36.7914 -76.7044 253° West 327 376 19,100 2,132 Climbing Washington Center
06:08PM 36.7631 -76.8233 253° West 349 402 21,000 934 Climbing Washington Center
06:09PM 36.7306 -76.9500 252° West 375 432 21,000  Level Washington Center
06:10PM 36.6917 -77.0631 247° West 375 432 21,000  Level Washington Center
06:11PM 36.6422 -77.1633 238° Southwest 360 414 21,000  Level Washington Center
06:12PM 36.5950 -77.2683 241° Southwest 352 405 21,000  Level Washington Center
06:13PM 36.5456 -77.3758 240° Southwest 352 405 21,000  Level Washington Center
06:14PM 36.4981 -77.4781 240° Southwest 352 405 21,000  Level Washington Center
06:15PM 36.4503 -77.5828 240° Southwest 352 405 21,000 -689 Level Washington Center
06:16PM 36.4050 -77.6747 239° Southwest 352 405 19,600 -1,636 Descending Washington Center
06:17PM 36.3594 -77.7739 240° Southwest 361 415 17,700 -2,136 Descending Washington Center
06:18PM 36.3008 -77.8986 240° Southwest 361 415 15,400 -2,122 Descending Washington Center
06:18PM 36.2814 -77.9367 238° Southwest 352 405 14,800 -1,429 Descending Washington Center
06:18PM 36.2683 -77.9619 237° Southwest 351 404 14,400 -2,000 Descending Washington Center
06:19PM 36.2508 -78.0003 240° Southwest 361 415 13,600 -2,000 Descending Washington Center
06:19PM 36.2158 -78.0739 240° Southwest 350 403 12,400 -1,770 Descending Washington Center
06:20PM 36.2028 -78.1042 242° Southwest 356 410 11,800 -1,770 Descending Washington Center
06:20PM 36.1678 -78.1753 239° Southwest 342 394 10,600 -1,600 Descending Washington Center
06:21PM 36.1592 -78.1903 235° Southwest 356 410 10,200 -1,600 Descending Washington Center
06:21PM 36.1306 -78.2589 243° Southwest 267 307 9,000 -1,966 Descending Washington Center
06:22PM 36.1258 -78.2844 257° West 294 338 8,300 -2,029 Descending Washington Center
06:23PM 36.1033 -78.3506 247° West 254 292 6,700 -1,770 Descending Washington Center
06:23PM 36.1033 -78.3608 270° West 270 311 6,500 -2,100 Descending Washington Center
06:24PM 36.0783 -78.4394 249° West 259 298 4,600 -2,200 Descending Washington Center
06:24PM 36.0781 -78.4525 268° West 265 305 4,300 -1,731 Descending Washington Center
06:24PM 36.0578 -78.5108 247° West 257 296 3,100 -1,279 Descending Washington Center
06:25PM 36.0511 -78.5336 250° West 265 305 3,000 -94 Descending Washington Center
06:25PM 36.0308 -78.5969 248° West 252 290 3,000  Level Washington Center
06:26PM 36.0261 -78.6122 249° West 260 299 3,000  Level Washington Center
06:27PM 35.9917 -78.6597 228° Southwest 199 229 3,000 -100 Level Washington Center
06:27PM 35.9872 -78.6647 222° Southwest 233 268 2,900 -800 Descending Washington Center
06:28PM 35.9572 -78.6994 223° Southwest 170 196 2,200 -931 Descending Washington Center
06:28PM 35.9528 -78.7069 234° Southwest 204 235 2,000 -800 Descending Washington Center
06:29PM 35.9247 -78.7392 223° Southwest 143 165 1,400 -729 Descending Washington Center
06:29PM 35.9011 -78.7692 226° Southwest 120 138 700 -778 Descending Washington Center
06:31PM 35.8776 -78.7875 270° West  Level Estimated
06:38PM 35.8776 -78.7875 349° North  Level Estimated